Time;durP1;ratioP1;P1;durP2;ratioP2;P2;SDS_P1;SDS_P2;PMS_P1;PMS_P2;Temp;Humidity;BMP_temperature;BMP_pressure;BME280_temperature;BME280_humidity;BME280_pressure;Samples;Min_cycle;Max_cycle;Signal;HPM_P1;HPM_P2
2024/02/07 00:01:29;;;;;;;8.50;3.60;;;4.90;99.90;;;;;;6059745;23;20026;-78
2024/02/07 00:04:16;;;;;;;7.35;3.88;;;4.90;99.90;;;;;;6060146;23;20030;-76
2024/02/07 00:07:05;;;;;;;6.22;3.80;;;4.90;99.90;;;;;;6036146;23;20031;-78
2024/02/07 00:09:53;;;;;;;5.72;3.38;;;5.00;99.90;;;;;;6059686;23;20023;-79
2024/02/07 00:12:41;;;;;;;7.57;3.25;;;5.00;99.90;;;;;;6042223;23;20045;-76
2024/02/07 00:15:31;;;;;;;9.52;3.60;;;5.00;99.90;;;;;;6069958;23;20027;-79
2024/02/07 00:18:19;;;;;;;9.93;3.97;;;5.00;99.90;;;;;;6047666;23;20023;-81
2024/02/07 00:21:10;;;;;;;6.80;3.65;;;5.10;99.90;;;;;;6075737;23;20026;-80
2024/02/07 00:23:58;;;;;;;8.90;3.88;;;5.10;99.90;;;;;;6040805;23;20034;-81
2024/02/07 00:26:45;;;;;;;7.15;3.72;;;5.00;99.90;;;;;;6055359;23;20086;-79
2024/02/07 00:29:36;;;;;;;8.07;3.60;;;5.00;99.90;;;;;;6060736;23;20027;-79
2024/02/07 00:32:25;;;;;;;8.35;3.97;;;5.00;99.90;;;;;;6055380;23;20030;-80
2024/02/07 00:35:14;;;;;;;7.47;4.20;;;5.00;99.90;;;;;;6057537;23;20030;-80
2024/02/07 00:38:03;;;;;;;6.88;3.50;;;5.00;99.90;;;;;;6056958;23;20037;-81
2024/02/07 00:40:52;;;;;;;6.28;3.80;;;5.00;99.90;;;;;;6056754;23;20038;-80
2024/02/07 00:43:41;;;;;;;8.63;3.78;;;5.00;99.90;;;;;;6058536;23;20030;-80
2024/02/07 00:46:29;;;;;;;8.27;3.70;;;5.00;99.90;;;;;;6060243;23;20034;-79
2024/02/07 00:49:17;;;;;;;8.32;3.88;;;5.00;99.90;;;;;;6056719;23;20351;-79
2024/02/07 00:52:05;;;;;;;7.18;3.60;;;5.00;99.90;;;;;;6058975;23;20030;-79
2024/02/07 00:54:55;;;;;;;8.95;4.47;;;4.90;99.90;;;;;;6058437;23;20038;-80
2024/02/07 00:57:42;;;;;;;8.25;3.63;;;4.80;99.90;;;;;;6069403;23;20419;-80
2024/02/07 01:00:30;;;;;;;11.27;3.92;;;4.90;99.90;;;;;;6068683;23;20058;-78
2024/02/07 01:03:17;;;;;;;8.45;4.00;;;5.00;99.90;;;;;;6058985;23;20030;-80
2024/02/07 01:06:06;;;;;;;6.68;4.00;;;5.10;99.90;;;;;;6048531;23;20056;-79
2024/02/07 01:08:55;;;;;;;6.43;3.90;;;5.20;99.90;;;;;;6037824;23;20758;-80
2024/02/07 01:11:43;;;;;;;11.55;4.50;;;5.20;99.90;;;;;;6061505;23;20055;-79
2024/02/07 01:14:30;;;;;;;7.28;4.10;;;5.30;99.90;;;;;;6059809;23;20027;-80
2024/02/07 01:17:18;;;;;;;7.82;3.50;;;5.30;99.90;;;;;;6058548;23;20034;-79
2024/02/07 01:20:09;;;;;;;6.68;3.67;;;5.40;99.90;;;;;;6036085;23;20330;-80
2024/02/07 01:22:58;;;;;;;8.45;4.28;;;5.50;99.90;;;;;;6059909;23;20384;-79
2024/02/07 01:25:46;;;;;;;9.05;3.72;;;5.50;99.90;;;;;;6040228;23;20039;-78
2024/02/07 01:28:34;;;;;;;10.52;4.40;;;5.50;99.90;;;;;;6060638;23;20128;-80
2024/02/07 01:31:24;;;;;;;11.63;5.30;;;5.50;99.90;;;;;;6060062;23;20033;-79
2024/02/07 01:34:11;;;;;;;7.10;4.75;;;5.50;99.90;;;;;;6054781;23;20058;-78
2024/02/07 01:36:59;;;;;;;8.30;4.22;;;5.50;99.90;;;;;;6059536;23;20026;-79
2024/02/07 01:39:47;;;;;;;15.35;6.88;;;5.50;99.90;;;;;;6057742;23;20026;-78
2024/02/07 01:42:40;;;;;;;14.27;5.40;;;5.50;99.90;;;;;;6075118;23;20086;-78
2024/02/07 01:45:31;;;;;;;6.35;4.88;;;5.50;99.90;;;;;;6087448;23;20034;-79
2024/02/07 01:48:19;;;;;;;7.35;3.70;;;5.50;99.90;;;;;;6080872;23;20033;-78
2024/02/07 01:51:08;;;;;;;10.73;3.95;;;5.50;99.90;;;;;;6078537;23;20034;-79
2024/02/07 01:53:57;;;;;;;7.70;3.63;;;5.50;99.90;;;;;;6057881;23;20118;-79
2024/02/07 01:56:45;;;;;;;10.27;4.20;;;5.50;99.90;;;;;;6063634;23;20050;-80
2024/02/07 01:59:35;;;;;;;8.52;4.03;;;5.60;99.90;;;;;;6058173;23;20030;-79
2024/02/07 02:02:25;;;;;;;9.98;4.50;;;5.60;99.90;;;;;;6056233;23;20109;-80
2024/02/07 02:05:13;;;;;;;9.10;4.32;;;5.60;99.90;;;;;;6059960;23;20117;-81
2024/02/07 02:08:05;;;;;;;6.18;4.30;;;5.60;99.90;;;;;;6056632;23;20049;-81
2024/02/07 02:11:03;;;;;;;6.67;4.00;;;5.50;99.90;;;;;;6057889;23;20019;-79
2024/02/07 02:13:52;;;;;;;6.68;3.72;;;5.50;99.90;;;;;;6039796;23;20082;-78
2024/02/07 02:16:40;;;;;;;9.65;4.40;;;5.50;99.90;;;;;;6059132;23;20030;-79
2024/02/07 02:19:29;;;;;;;8.20;4.00;;;5.50;99.90;;;;;;6059732;23;20169;-80
2024/02/07 02:22:30;;;;;;;11.10;4.05;;;5.50;99.90;;;;;;6058744;23;20120;-80
2024/02/07 02:25:42;;;;;;;12.60;4.55;;;5.50;99.90;;;;;;6040734;23;20049;-79
2024/02/07 02:29:04;;;;;;;7.40;3.90;;;5.50;99.90;;;;;;6060463;23;20033;-77
2024/02/07 02:31:56;;;;;;;7.05;3.60;;;5.50;99.90;;;;;;6076672;23;20030;-79
2024/02/07 02:34:44;;;;;;;8.30;4.32;;;5.50;99.90;;;;;;6062747;23;20019;-81
2024/02/07 02:37:32;;;;;;;10.52;4.22;;;5.50;99.90;;;;;;6059632;23;20027;-80
2024/02/07 02:40:19;;;;;;;8.13;4.20;;;5.50;99.90;;;;;;6058898;23;20038;-78
2024/02/07 02:43:07;;;;;;;9.73;4.32;;;5.40;99.90;;;;;;6038774;23;20465;-78
2024/02/07 02:45:55;;;;;;;10.45;3.55;;;5.40;99.90;;;;;;6062243;23;20102;-77
2024/02/07 02:48:43;;;;;;;9.23;4.07;;;5.40;99.90;;;;;;6072773;23;20489;-80
2024/02/07 02:51:36;;;;;;;8.43;4.47;;;5.40;99.90;;;;;;6075524;23;20391;-79
2024/02/07 02:54:25;;;;;;;8.60;3.90;;;5.50;99.90;;;;;;6078731;23;20449;-80
2024/02/07 02:57:13;;;;;;;8.77;4.05;;;5.50;99.90;;;;;;6064452;23;20027;-77
2024/02/07 03:00:06;;;;;;;6.10;4.35;;;5.50;99.90;;;;;;6076879;23;20034;-80
2024/02/07 03:02:57;;;;;;;8.63;4.45;;;5.50;99.90;;;;;;6080124;23;20049;-82
2024/02/07 03:08:53;;;;;;;6.00;4.25;;;5.60;99.90;;;;;;6041757;23;20110;-79
2024/02/07 03:11:44;;;;;;;10.85;4.70;;;5.60;99.90;;;;;;6040014;23;20033;-79
2024/02/07 03:14:32;;;;;;;9.52;4.20;;;5.60;99.90;;;;;;6059712;23;20029;-80
2024/02/07 03:17:20;;;;;;;9.27;4.80;;;5.60;99.90;;;;;;6057914;23;20030;-79
2024/02/07 03:20:11;;;;;;;7.30;3.83;;;5.60;99.90;;;;;;6056373;23;20022;-78
2024/02/07 03:22:59;;;;;;;10.50;5.03;;;5.70;99.90;;;;;;6037931;23;20034;-79
2024/02/07 03:25:47;;;;;;;8.27;4.22;;;5.80;99.90;;;;;;6059554;23;20051;-78
2024/02/07 03:28:35;;;;;;;5.47;3.97;;;5.90;99.90;;;;;;6059309;23;20033;-80
2024/02/07 03:31:24;;;;;;;11.68;5.05;;;5.80;99.90;;;;;;6058924;23;20022;-80
2024/02/07 03:34:12;;;;;;;10.98;4.70;;;5.90;99.90;;;;;;6036397;23;20027;-77
2024/02/07 03:37:00;;;;;;;9.65;4.80;;;5.90;99.90;;;;;;6057639;23;20078;-80
2024/02/07 03:39:48;;;;;;;10.80;4.80;;;5.90;99.90;;;;;;6036809;23;20059;-78
2024/02/07 03:42:36;;;;;;;10.55;4.63;;;5.80;99.90;;;;;;6064013;23;20037;-79
2024/02/07 03:45:24;;;;;;;6.60;3.83;;;5.80;99.90;;;;;;6046929;23;20031;-80
2024/02/07 03:48:17;;;;;;;8.95;4.40;;;5.80;99.90;;;;;;6044332;23;20034;-79
2024/02/07 03:51:04;;;;;;;10.10;4.22;;;5.90;99.90;;;;;;6057710;23;20097;-80
2024/02/07 03:53:52;;;;;;;6.00;3.75;;;5.90;99.90;;;;;;6055932;23;20106;-81
2024/02/07 03:56:40;;;;;;;8.77;4.05;;;5.90;99.90;;;;;;6055634;23;20076;-79
2024/02/07 03:59:28;;;;;;;9.48;4.40;;;5.90;99.90;;;;;;6056606;23;20026;-77
2024/02/07 04:02:22;;;;;;;4.55;3.65;;;5.90;99.90;;;;;;6056896;23;20053;-80
2024/02/07 04:05:11;;;;;;;8.80;4.30;;;5.90;99.90;;;;;;6036171;23;20091;-81
2024/02/07 04:07:59;;;;;;;8.60;3.83;;;6.00;99.90;;;;;;6056985;23;20430;-79
2024/02/07 04:10:51;;;;;;;10.05;3.92;;;6.00;99.90;;;;;;6057860;23;20030;-80
2024/02/07 05:15:46;;;;;;;4.13;3.05;;;6.70;99.90;;;;;;6054535;23;20031;-80
2024/02/07 05:18:34;;;;;;;8.05;3.80;;;6.70;99.90;;;;;;6047847;23;20031;-79
2024/02/07 05:21:22;;;;;;;7.32;4.07;;;6.70;99.90;;;;;;6039482;23;20155;-78
2024/02/07 05:24:12;;;;;;;6.40;3.53;;;6.70;99.90;;;;;;6056368;23;20027;-79
2024/02/07 05:27:00;;;;;;;5.50;3.47;;;6.70;99.90;;;;;;6068714;23;20495;-79
2024/02/07 05:29:50;;;;;;;9.27;3.80;;;6.70;99.90;;;;;;6061990;23;20082;-79
2024/02/07 05:32:37;;;;;;;11.35;4.32;;;6.70;99.90;;;;;;6059728;23;20031;-80
2024/02/07 05:35:25;;;;;;;7.30;3.55;;;6.70;99.90;;;;;;6059817;23;20093;-79
2024/02/07 05:38:13;;;;;;;6.82;4.15;;;6.60;99.90;;;;;;6033373;23;20027;-78
2024/02/07 05:41:01;;;;;;;7.93;3.80;;;6.60;99.90;;;;;;6057210;23;20030;-77
2024/02/07 05:43:51;;;;;;;8.60;4.10;;;6.60;99.90;;;;;;6056574;23;20045;-77
2024/02/07 05:46:40;;;;;;;6.57;4.22;;;6.50;99.90;;;;;;6035632;23;20034;-75
2024/02/07 05:49:29;;;;;;;10.43;4.05;;;6.60;99.90;;;;;;6062501;23;20050;-78
2024/02/07 05:52:19;;;;;;;5.70;3.90;;;6.50;99.90;;;;;;6060888;23;20030;-77
2024/02/07 05:55:07;;;;;;;4.53;3.30;;;6.40;99.90;;;;;;6058719;23;20444;-80
2024/02/07 05:57:55;;;;;;;5.07;4.40;;;6.40;99.90;;;;;;6059916;23;20010;-79
2024/02/07 06:00:43;;;;;;;8.40;4.13;;;6.40;99.90;;;;;;6086919;23;20082;-80
2024/02/07 06:03:32;;;;;;;9.43;4.32;;;6.40;99.90;;;;;;6064445;23;20034;-81
2024/02/07 06:06:20;;;;;;;10.75;5.18;;;6.50;99.90;;;;;;6032591;23;20034;-80
2024/02/07 06:09:10;;;;;;;7.57;4.82;;;6.50;99.90;;;;;;6071453;23;20358;-80
2024/02/07 06:11:59;;;;;;;9.57;4.18;;;6.50;99.90;;;;;;6046770;23;20068;-82
2024/02/07 06:14:48;;;;;;;5.97;4.05;;;6.60;99.90;;;;;;6059530;23;20370;-83
2024/02/07 06:17:36;;;;;;;7.55;4.72;;;6.60;99.90;;;;;;6059681;23;20027;-79
2024/02/07 06:20:28;;;;;;;9.25;4.20;;;6.60;99.90;;;;;;6058428;23;20045;-81
2024/02/07 06:23:16;;;;;;;10.43;3.92;;;6.70;99.90;;;;;;6018995;23;20130;-82
2024/02/07 06:26:04;;;;;;;7.85;4.15;;;6.70;99.90;;;;;;6057013;23;20038;-80
2024/02/07 06:28:51;;;;;;;12.57;4.45;;;6.80;99.90;;;;;;6058386;23;20029;-80
2024/02/07 06:31:40;;;;;;;11.25;4.45;;;6.80;99.90;;;;;;6062349;23;20030;-79
2024/02/07 06:34:31;;;;;;;8.18;4.72;;;6.80;99.90;;;;;;6057157;23;20050;-78
2024/02/07 06:37:19;;;;;;;8.77;4.50;;;6.80;99.90;;;;;;6055323;23;20031;-79
2024/02/07 06:40:09;;;;;;;10.32;4.50;;;6.80;99.90;;;;;;6055972;23;20030;-80
2024/02/07 06:42:56;;;;;;;10.77;4.25;;;6.90;99.90;;;;;;6065236;23;20113;-82
2024/02/07 06:45:44;;;;;;;8.05;4.20;;;6.90;99.90;;;;;;6058004;23;20026;-81
2024/02/07 06:48:31;;;;;;;7.85;4.30;;;6.90;99.90;;;;;;6057659;23;20022;-79
2024/02/07 06:51:19;;;;;;;10.30;4.53;;;6.80;99.90;;;;;;6066105;23;20027;-80
2024/02/07 06:54:06;;;;;;;5.70;4.13;;;6.90;99.90;;;;;;6065655;23;20019;-80
2024/02/07 06:56:55;;;;;;;9.75;4.18;;;6.90;99.90;;;;;;6035964;23;20026;-81
2024/02/07 06:59:42;;;;;;;9.82;4.72;;;6.90;99.90;;;;;;6036712;23;20022;-80
2024/02/07 07:02:30;;;;;;;11.80;4.45;;;6.90;99.90;;;;;;6058752;23;20039;-80
2024/02/07 07:05:18;;;;;;;12.07;4.53;;;7.00;99.90;;;;;;6058627;23;20470;-81
2024/02/07 07:08:05;;;;;;;7.65;3.88;;;7.00;99.90;;;;;;6058314;23;20382;-80
2024/02/07 07:10:56;;;;;;;11.07;4.20;;;7.00;99.90;;;;;;6056330;23;20074;-79
2024/02/07 07:13:44;;;;;;;7.18;3.33;;;7.00;99.90;;;;;;6035126;23;20382;-80
2024/02/07 07:16:32;;;;;;;12.80;4.10;;;7.00;99.90;;;;;;6056705;23;20038;-81
2024/02/07 07:19:20;;;;;;;6.32;3.85;;;7.10;99.90;;;;;;6057736;23;20022;-80
2024/02/07 07:22:07;;;;;;;6.45;3.78;;;7.10;99.90;;;;;;6055024;23;20035;-79
2024/02/07 07:24:55;;;;;;;10.10;4.32;;;7.10;99.90;;;;;;6067060;23;20027;-80
2024/02/07 07:27:43;;;;;;;9.25;3.65;;;7.20;99.90;;;;;;6067197;23;20031;-79
2024/02/07 07:30:31;;;;;;;7.32;4.13;;;7.20;99.90;;;;;;6050609;23;20563;-78
2024/02/07 07:33:19;;;;;;;8.63;4.28;;;7.20;99.90;;;;;;6075209;23;20078;-81
2024/02/07 07:36:07;;;;;;;9.18;4.57;;;7.30;99.90;;;;;;6084240;23;20034;-78
2024/02/07 07:38:55;;;;;;;11.80;4.70;;;7.30;99.90;;;;;;6079917;23;20043;-80
2024/02/07 07:41:44;;;;;;;8.75;4.70;;;7.40;99.90;;;;;;6060617;23;20030;-81
2024/02/07 07:44:31;;;;;;;10.88;4.10;;;7.40;99.90;;;;;;6060297;23;20043;-80
2024/02/07 07:47:19;;;;;;;10.40;4.53;;;7.50;99.90;;;;;;6077365;23;20055;-81
2024/02/07 07:50:09;;;;;;;7.82;4.47;;;7.50;99.90;;;;;;6067251;23;20035;-79
2024/02/07 07:52:57;;;;;;;8.50;5.22;;;7.50;99.90;;;;;;6062350;23;20042;-79
2024/02/07 07:55:45;;;;;;;10.30;5.80;;;7.50;99.90;;;;;;6057323;23;20099;-81
2024/02/07 07:58:37;;;;;;;13.30;5.45;;;7.60;99.90;;;;;;6046339;23;20038;-79
2024/02/07 08:01:38;;;;;;;10.13;4.35;;;7.60;99.90;;;;;;6078093;23;20026;-81
2024/02/07 08:04:27;;;;;;;8.65;4.88;;;7.70;99.90;;;;;;6078507;23;20015;-79
2024/02/07 08:07:15;;;;;;;9.73;4.72;;;7.70;99.90;;;;;;6080606;23;20010;-77
2024/02/07 08:10:03;;;;;;;9.50;4.97;;;7.70;99.90;;;;;;6064304;23;20542;-81
2024/02/07 08:12:52;;;;;;;10.55;4.43;;;7.70;99.90;;;;;;6059477;23;20027;-79
2024/02/07 08:15:41;;;;;;;9.32;4.90;;;7.70;99.90;;;;;;6057998;23;20655;-79
2024/02/07 08:18:32;;;;;;;13.15;4.60;;;7.70;99.90;;;;;;6068024;23;20453;-81
2024/02/07 08:21:20;;;;;;;7.88;3.80;;;7.70;99.90;;;;;;6069029;23;20096;-79
2024/02/07 08:24:08;;;;;;;8.68;4.88;;;7.70;99.90;;;;;;6038842;23;20540;-79
2024/02/07 08:26:56;;;;;;;9.10;4.55;;;7.70;99.90;;;;;;6063886;23;20031;-80
2024/02/07 08:29:45;;;;;;;10.18;4.38;;;7.60;99.90;;;;;;6038471;23;20458;-80
2024/02/07 08:32:33;;;;;;;9.82;4.78;;;7.60;99.90;;;;;;6046943;23;20042;-81
2024/02/07 08:35:20;;;;;;;7.10;4.15;;;7.60;99.90;;;;;;6016784;23;20406;-79
2024/02/07 08:38:08;;;;;;;8.65;3.97;;;7.60;99.90;;;;;;6059861;23;20578;-80
2024/02/07 08:40:56;;;;;;;9.32;4.30;;;7.60;99.90;;;;;;6067793;23;20050;-81
2024/02/07 08:43:55;;;;;;;9.65;4.20;;;7.60;99.90;;;;;;6046149;23;20027;-80
2024/02/07 08:46:44;;;;;;;8.18;4.50;;;7.60;99.90;;;;;;6061110;23;20027;-80
2024/02/07 08:49:31;;;;;;;9.10;4.70;;;7.60;99.90;;;;;;6020357;23;20074;-81
2024/02/07 08:52:19;;;;;;;10.25;4.25;;;7.70;99.90;;;;;;6038667;23;20027;-80
2024/02/07 08:55:08;;;;;;;10.45;4.85;;;7.70;99.90;;;;;;6060785;23;20026;-81
2024/02/07 08:57:57;;;;;;;10.70;4.65;;;7.70;99.90;;;;;;6061835;23;20023;-80
2024/02/07 09:00:45;;;;;;;13.50;5.10;;;7.80;99.90;;;;;;6040979;23;20514;-78
2024/02/07 09:03:32;;;;;;;9.50;4.30;;;7.90;99.90;;;;;;6072207;23;20535;-80
2024/02/07 09:06:20;;;;;;;12.55;4.07;;;7.90;99.90;;;;;;6069581;23;20023;-80
2024/02/07 09:09:12;;;;;;;8.18;4.38;;;7.90;99.90;;;;;;6062264;23;20086;-80
2024/02/07 09:11:59;;;;;;;9.60;4.43;;;7.90;99.90;;;;;;6062808;23;20027;-79
2024/02/07 09:14:47;;;;;;;8.63;4.53;;;7.90;99.90;;;;;;6065803;23;20027;-80
2024/02/07 09:17:34;;;;;;;11.73;4.90;;;7.90;99.90;;;;;;6060818;23;20115;-79
2024/02/07 09:20:23;;;;;;;7.65;4.25;;;7.90;99.90;;;;;;6060102;23;20027;-82
2024/02/07 09:23:11;;;;;;;7.85;3.90;;;8.00;99.90;;;;;;6060245;23;20027;-80
2024/02/07 09:25:59;;;;;;;9.90;4.20;;;8.00;99.90;;;;;;6061933;23;20347;-80
2024/02/07 09:28:48;;;;;;;10.75;4.50;;;8.10;99.90;;;;;;6070834;23;20031;-80
2024/02/07 09:31:38;;;;;;;8.95;4.07;;;8.10;99.90;;;;;;6064533;23;20043;-82
2024/02/07 09:34:25;;;;;;;8.15;4.45;;;8.10;99.90;;;;;;6068564;23;20019;-79
2024/02/07 09:37:13;;;;;;;9.00;3.72;;;8.20;99.90;;;;;;6078062;23;20288;-78
2024/02/07 09:40:01;;;;;;;7.65;4.57;;;8.20;99.90;;;;;;6070894;23;20037;-81
2024/02/07 09:42:51;;;;;;;10.07;4.60;;;8.20;99.90;;;;;;6057647;23;20107;-78
2024/02/07 09:45:43;;;;;;;9.73;4.90;;;8.20;99.90;;;;;;6063485;23;20027;-81
2024/02/07 09:48:32;;;;;;;8.93;4.65;;;8.30;99.90;;;;;;6069004;23;20022;-79
2024/02/07 09:51:21;;;;;;;8.25;4.00;;;8.30;99.90;;;;;;6068106;23;20033;-79
2024/02/07 09:54:12;;;;;;;8.93;3.85;;;8.30;99.90;;;;;;6057635;23;20027;-80
2024/02/07 09:57:00;;;;;;;11.35;4.43;;;8.40;99.90;;;;;;6037929;23;20038;-80
2024/02/07 09:59:48;;;;;;;6.55;3.75;;;8.40;99.90;;;;;;6061590;23;20034;-79
2024/02/07 10:02:38;;;;;;;5.78;3.38;;;8.40;99.90;;;;;;6057862;23;20353;-79
2024/02/07 10:05:29;;;;;;;7.28;3.60;;;8.40;99.90;;;;;;6037241;23;20130;-79
2024/02/07 10:08:23;;;;;;;10.95;3.50;;;8.50;99.90;;;;;;6058402;23;20038;-81
2024/02/07 10:11:11;;;;;;;8.02;3.22;;;8.50;99.90;;;;;;6054697;23;20030;-81
2024/02/07 10:14:02;;;;;;;9.13;3.03;;;8.50;99.90;;;;;;6054445;23;20033;-81
2024/02/07 10:16:49;;;;;;;9.23;3.40;;;8.60;99.90;;;;;;6054874;23;20033;-79
2024/02/07 10:19:40;;;;;;;6.53;3.40;;;8.60;99.90;;;;;;6055575;23;20027;-80
2024/02/07 10:22:27;;;;;;;9.85;4.72;;;8.60;99.90;;;;;;6056090;23;20386;-81
2024/02/07 10:25:16;;;;;;;6.45;3.22;;;8.60;99.90;;;;;;6057503;23;20287;-80
2024/02/07 10:28:06;;;;;;;5.65;2.58;;;8.70;99.90;;;;;;6056794;23;20058;-79
2024/02/07 10:31:03;;;;;;;6.60;2.90;;;9.00;99.90;;;;;;6067856;23;20066;-79
2024/02/07 10:33:52;;;;;;;6.38;3.55;;;9.40;99.90;;;;;;6055734;23;20038;-81
2024/02/07 10:36:39;;;;;;;5.30;2.80;;;9.50;99.90;;;;;;6057992;23;20122;-80
2024/02/07 10:39:28;;;;;;;5.25;2.97;;;9.70;99.90;;;;;;6065391;23;20429;-77
2024/02/07 10:42:16;;;;;;;7.45;3.55;;;9.60;99.90;;;;;;6067599;23;20027;-81
2024/02/07 10:45:13;;;;;;;4.85;2.95;;;9.50;99.90;;;;;;6060837;23;20029;-81
2024/02/07 10:48:01;;;;;;;7.05;3.15;;;9.40;99.90;;;;;;6059990;23;20042;-81
2024/02/07 10:50:51;;;;;;;10.30;3.75;;;9.20;99.90;;;;;;6058528;23;20093;-82
2024/02/07 10:53:42;;;;;;;6.25;3.17;;;8.90;99.90;;;;;;6056743;23;20031;-77
2024/02/07 10:56:35;;;;;;;7.97;3.60;;;8.90;99.90;;;;;;6053610;23;20192;-80
2024/02/07 10:59:24;;;;;;;8.75;3.40;;;8.80;99.90;;;;;;6057269;23;20023;-80
2024/02/07 11:02:19;;;;;;;8.35;3.50;;;8.70;99.90;;;;;;6036687;23;20034;-81
2024/02/07 11:05:08;;;;;;;7.95;3.40;;;8.80;99.90;;;;;;6057344;23;20031;-81
2024/02/07 11:07:56;;;;;;;6.13;3.80;;;8.80;99.90;;;;;;6054306;23;20034;-80
2024/02/07 11:10:45;;;;;;;8.35;3.42;;;8.80;99.90;;;;;;6033766;23;20059;-80
2024/02/07 11:13:33;;;;;;;8.85;3.60;;;8.80;99.90;;;;;;6055861;23;20030;-81
2024/02/07 11:16:21;;;;;;;6.55;3.72;;;8.70;99.90;;;;;;6036335;23;20026;-80
2024/02/07 11:19:10;;;;;;;8.35;3.80;;;8.80;99.90;;;;;;6057107;23;20097;-79
2024/02/07 11:21:58;;;;;;;5.68;3.28;;;8.80;99.90;;;;;;6067097;23;20035;-81
2024/02/07 11:24:46;;;;;;;4.68;2.80;;;8.80;99.90;;;;;;6056079;23;20033;-79
2024/02/07 11:27:39;;;;;;;6.38;3.08;;;8.90;99.90;;;;;;6040433;23;20161;-78
2024/02/07 11:30:28;;;;;;;4.72;2.90;;;9.30;99.90;;;;;;6069484;23;20058;-80
2024/02/07 11:33:18;;;;;;;5.93;2.80;;;9.80;99.90;;;;;;6069393;23;20029;-80
2024/02/07 11:36:07;;;;;;;6.97;2.75;;;10.50;99.90;;;;;;6060556;23;20034;-80
2024/02/07 11:38:55;;;;;;;6.10;2.97;;;11.20;99.90;;;;;;6054699;23;20030;-80
2024/02/07 11:41:46;;;;;;;7.03;2.72;;;11.50;99.90;;;;;;6055529;23;20039;-81
2024/02/07 11:44:47;;;;;;;;;;;12.00;99.90;;;;;;6060917;23;20086;-81
2024/02/07 11:47:42;;;;;;;5.82;2.25;;;12.00;99.90;;;;;;6033757;23;19917;-80
2024/02/07 11:50:37;;;;;;;5.65;2.10;;;12.30;99.90;;;;;;6057028;23;20039;-80
2024/02/07 11:53:28;;;;;;;4.32;1.85;;;12.70;99.90;;;;;;6056774;23;20030;-81
2024/02/07 11:56:20;;;;;;;6.10;2.53;;;12.40;99.90;;;;;;6037114;23;20484;-80
2024/02/07 11:59:11;;;;;;;4.30;2.20;;;12.20;99.90;;;;;;6055505;23;20034;-79
2024/02/07 12:02:11;;;;;;;6.90;2.20;;;11.80;99.90;;;;;;6058156;23;20082;-80
2024/02/07 12:05:03;;;;;;;5.28;2.00;;;12.30;99.90;;;;;;6056677;23;20070;-80
2024/02/07 12:07:55;;;;;;;4.47;2.05;;;12.60;99.90;;;;;;6055086;23;20043;-81
2024/02/07 12:10:43;;;;;;;3.72;2.00;;;12.90;99.90;;;;;;6055803;23;20036;-79
2024/02/07 12:13:34;;;;;;;5.18;2.08;;;12.50;99.90;;;;;;6055806;23;20114;-81
2024/02/07 12:16:23;;;;;;;3.05;1.77;;;12.20;99.90;;;;;;6036445;23;20030;-80
2024/02/07 12:19:11;;;;;;;5.70;2.10;;;12.50;99.90;;;;;;6059409;23;20023;-80
2024/02/07 12:22:01;;;;;;;4.32;2.08;;;12.10;99.90;;;;;;6063906;23;20101;-78
2024/02/07 12:24:51;;;;;;;4.03;2.08;;;11.40;99.90;;;;;;6056527;23;20031;-80
2024/02/07 12:27:41;;;;;;;4.93;2.28;;;11.10;99.90;;;;;;6017719;23;20462;-80
2024/02/07 12:30:28;;;;;;;4.25;2.03;;;11.10;99.90;;;;;;6062219;23;20030;-79
2024/02/07 12:33:18;;;;;;;4.85;1.90;;;11.30;99.90;;;;;;6068106;23;20517;-78
2024/02/07 12:36:10;;;;;;;4.05;1.60;;;11.70;99.90;;;;;;6042394;23;20027;-80
2024/02/07 12:38:58;;;;;;;2.70;1.80;;;12.20;99.90;;;;;;6057213;23;20026;-81
2024/02/07 12:41:46;;;;;;;4.68;1.77;;;11.90;99.90;;;;;;6058368;23;20030;-80
2024/02/07 12:44:39;;;;;;;3.75;2.03;;;12.00;99.90;;;;;;6061347;23;20023;-79
2024/02/07 12:47:28;;;;;;;5.15;1.90;;;11.80;99.90;;;;;;6059624;23;20027;-81
2024/02/07 12:50:18;;;;;;;7.00;2.28;;;11.70;99.90;;;;;;6038242;23;20573;-80
2024/02/07 12:53:09;;;;;;;4.95;2.42;;;11.00;99.90;;;;;;6039088;23;20023;-80
2024/02/07 12:55:57;;;;;;;4.53;2.30;;;10.80;99.90;;;;;;6041466;23;20026;-80
2024/02/07 12:58:46;;;;;;;4.22;2.15;;;10.60;99.90;;;;;;6060545;23;20545;-80
2024/02/07 13:01:34;;;;;;;3.55;2.08;;;10.30;99.90;;;;;;6049086;23;20095;-80
2024/02/07 13:04:21;;;;;;;6.93;2.80;;;10.30;99.90;;;;;;6061193;23;20022;-79
2024/02/07 13:07:15;;;;;;;3.25;2.25;;;10.40;99.90;;;;;;6077635;23;20030;-79
2024/02/07 13:10:04;;;;;;;8.13;2.58;;;10.40;99.90;;;;;;6059574;23;20031;-81
2024/02/07 13:12:52;;;;;;;3.80;2.00;;;10.20;99.90;;;;;;6046906;23;20027;-80
2024/02/07 13:15:39;;;;;;;5.28;2.88;;;10.00;99.90;;;;;;6076586;23;20383;-78
2024/02/07 13:18:27;;;;;;;3.33;2.22;;;10.00;99.90;;;;;;6070993;23;20140;-82
2024/02/07 13:21:17;;;;;;;6.25;2.67;;;9.90;99.90;;;;;;6064150;23;20026;-80
2024/02/07 13:24:07;;;;;;;6.28;2.78;;;9.60;99.90;;;;;;6059075;23;20354;-81
2024/02/07 13:26:59;;;;;;;3.65;2.60;;;9.50;99.90;;;;;;6036141;23;20031;-83
2024/02/07 13:29:47;;;;;;;3.05;2.00;;;9.50;99.90;;;;;;6066366;23;20061;-80
2024/02/07 13:32:35;;;;;;;6.07;2.30;;;9.50;99.90;;;;;;6058607;23;20043;-80
2024/02/07 13:35:23;;;;;;;4.00;2.20;;;9.40;99.90;;;;;;6056145;23;20019;-81
2024/02/07 13:38:11;;;;;;;6.60;2.10;;;9.40;99.90;;;;;;6056121;23;20030;-80
2024/02/07 13:41:19;;;;;;;8.00;2.65;;;9.40;99.90;;;;;;6040902;23;20067;-80
2024/02/07 13:44:07;;;;;;;3.97;2.53;;;9.30;99.90;;;;;;6057011;23;20027;-80
2024/02/07 13:46:55;;;;;;;4.07;2.30;;;9.30;99.90;;;;;;6055885;23;20027;-80
2024/02/07 13:49:43;;;;;;;5.60;2.67;;;9.30;99.90;;;;;;6056853;23;20058;-81
2024/02/07 13:52:33;;;;;;;6.20;2.33;;;9.30;99.90;;;;;;6056355;23;20059;-81
2024/02/07 13:55:21;;;;;;;5.35;2.50;;;9.30;99.90;;;;;;6058306;23;20477;-81
2024/02/07 13:58:08;;;;;;;4.07;2.08;;;9.30;99.90;;;;;;6056796;23;20462;-79
2024/02/07 14:00:56;;;;;;;4.63;2.25;;;9.40;99.90;;;;;;6061274;23;20023;-79
2024/02/07 14:03:44;;;;;;;6.85;2.42;;;9.40;99.90;;;;;;6078880;23;20041;-79
2024/02/07 14:06:34;;;;;;;4.35;2.72;;;9.20;99.90;;;;;;6062941;23;20027;-80
2024/02/07 14:09:22;;;;;;;5.72;3.10;;;9.30;99.90;;;;;;6077492;23;20042;-79
2024/02/07 14:12:09;;;;;;;4.80;2.65;;;9.30;99.90;;;;;;6068128;23;20034;-80
2024/02/07 14:14:57;;;;;;;5.40;3.03;;;9.20;99.90;;;;;;6059507;23;20027;-80
2024/02/07 14:17:44;;;;;;;5.38;2.63;;;9.10;99.90;;;;;;6061407;23;20090;-80
2024/02/07 14:20:32;;;;;;;4.30;2.30;;;9.10;99.90;;;;;;6057157;23;20031;-81
2024/02/07 14:23:20;;;;;;;3.95;2.50;;;9.10;99.90;;;;;;6037198;23;20136;-79
2024/02/07 14:26:08;;;;;;;8.40;2.80;;;9.00;99.90;;;;;;6056935;23;20427;-78
2024/02/07 14:29:21;;;;;;;3.58;2.13;;;9.10;99.90;;;;;;6063892;23;20018;-81
2024/02/07 14:32:12;;;;;;;;;;;9.10;99.90;;;;;;6058456;23;20030;-81
2024/02/07 14:35:01;;;;;;;6.50;2.55;;;9.10;99.90;;;;;;6057587;23;19955;-80
2024/02/07 14:37:50;;;;;;;6.63;2.30;;;9.00;99.90;;;;;;6056039;23;20038;-79
2024/02/07 14:40:38;;;;;;;5.47;2.60;;;8.90;99.90;;;;;;6055790;23;20031;-80
2024/02/07 14:43:25;;;;;;;5.53;2.55;;;8.90;99.90;;;;;;6058970;23;20174;-79
2024/02/07 14:46:13;;;;;;;3.53;2.03;;;8.90;99.90;;;;;;6035291;23;20126;-81
2024/02/07 14:49:04;;;;;;;4.40;3.03;;;8.80;99.90;;;;;;6047713;23;20026;-81
2024/02/07 14:51:52;;;;;;;5.68;2.65;;;8.90;99.90;;;;;;6055052;23;20030;-80
2024/02/07 14:54:40;;;;;;;3.65;2.20;;;8.80;99.90;;;;;;6042223;23;20034;-81
2024/02/07 14:57:29;;;;;;;8.00;2.60;;;8.80;99.90;;;;;;6067217;23;20157;-80
2024/02/07 15:00:17;;;;;;;6.38;2.47;;;8.70;99.90;;;;;;6083839;23;20015;-80
2024/02/07 15:03:10;;;;;;;7.57;3.22;;;8.70;99.90;;;;;;6056634;23;20616;-80
2024/02/07 15:05:58;;;;;;;5.28;2.50;;;8.70;99.90;;;;;;6054627;23;20035;-81
2024/02/07 15:08:46;;;;;;;4.85;2.47;;;8.70;99.90;;;;;;6065832;23;20105;-81
2024/02/07 15:11:35;;;;;;;7.85;2.72;;;8.70;99.90;;;;;;6034197;23;20050;-82
2024/02/07 15:14:24;;;;;;;4.05;2.78;;;8.70;99.90;;;;;;6062286;23;20097;-79
2024/02/07 15:17:15;;;;;;;7.63;2.33;;;8.80;99.90;;;;;;6054311;23;20438;-78
2024/02/07 15:20:04;;;;;;;9.63;2.63;;;8.90;99.90;;;;;;6055263;23;20031;-80
2024/02/07 15:22:52;;;;;;;5.25;2.30;;;9.20;99.90;;;;;;6016980;23;20078;-81
2024/02/07 15:25:40;;;;;;;7.25;2.65;;;9.40;99.90;;;;;;6069415;23;20026;-80
2024/02/07 15:28:29;;;;;;;4.53;2.58;;;9.30;99.90;;;;;;6056804;23;20041;-81
2024/02/07 15:31:18;;;;;;;6.30;2.80;;;9.20;99.90;;;;;;6034179;23;20046;-82
2024/02/07 15:34:06;;;;;;;5.22;2.70;;;9.20;99.90;;;;;;6016372;23;20027;-80
2024/02/07 15:36:53;;;;;;;3.45;2.30;;;9.10;99.90;;;;;;6054823;23;20674;-80
2024/02/07 15:39:41;;;;;;;4.57;2.10;;;8.90;99.90;;;;;;6064213;23;20374;-79
2024/02/07 15:42:30;;;;;;;5.88;2.70;;;8.70;99.90;;;;;;6066546;23;20543;-81
2024/02/07 15:45:17;;;;;;;5.63;2.45;;;8.60;99.90;;;;;;6061433;23;20041;-81
2024/02/07 15:48:06;;;;;;;6.35;2.55;;;8.60;99.90;;;;;;6055176;23;20025;-82
2024/02/07 15:50:54;;;;;;;4.25;2.67;;;8.50;99.90;;;;;;6056842;23;20029;-82
2024/02/07 15:53:42;;;;;;;4.82;2.63;;;8.50;99.90;;;;;;6059293;23;20023;-80
2024/02/07 15:56:30;;;;;;;4.30;2.83;;;8.40;99.90;;;;;;6056559;23;20031;-81